createdAt,value
2019-04-07T00:01:11.426Z,7.80
2019-04-07T00:03:40.793Z,7.80
2019-04-07T00:06:10.861Z,7.80
2019-04-07T00:08:40.246Z,7.80
2019-04-07T00:11:09.613Z,7.90
2019-04-07T00:13:38.927Z,7.90
2019-04-07T00:16:08.406Z,8.00
2019-04-07T00:18:37.821Z,8.00
2019-04-07T00:21:07.483Z,8.00
2019-04-07T00:23:36.791Z,8.00
2019-04-07T00:26:06.120Z,8.00
2019-04-07T00:28:35.509Z,7.90
2019-04-07T00:31:05.130Z,8.00
2019-04-07T00:33:34.506Z,7.90
2019-04-07T00:36:04.193Z,8.00
2019-04-07T00:38:33.614Z,8.00
2019-04-07T00:41:02.972Z,8.10
2019-04-07T00:43:32.288Z,8.10
2019-04-07T00:46:01.635Z,8.10
2019-04-07T00:48:31.139Z,8.10
2019-04-07T00:51:00.438Z,8.10
2019-04-07T00:53:30.011Z,8.20
2019-04-07T00:55:59.481Z,8.20
2019-04-07T00:58:29.310Z,8.20
2019-04-07T01:00:58.887Z,8.20
2019-04-07T01:03:28.324Z,8.20
2019-04-07T01:05:57.664Z,8.00
2019-04-07T01:08:27.160Z,7.90
2019-04-07T01:10:56.993Z,7.80
2019-04-07T01:13:27.221Z,7.70
2019-04-07T01:15:57.141Z,7.70
2019-04-07T01:18:30.516Z,7.70
2019-04-07T01:21:00.580Z,7.70
2019-04-07T01:23:29.949Z,7.70
2019-04-07T01:25:59.245Z,7.70
2019-04-07T01:28:28.645Z,7.60
2019-04-07T01:30:58.089Z,7.60
2019-04-07T01:33:27.759Z,7.60
2019-04-07T01:35:57.251Z,7.60
2019-04-07T01:38:26.778Z,7.60
2019-04-07T01:41:02.093Z,7.50
2019-04-07T01:43:39.406Z,7.50
2019-04-07T01:46:18.403Z,7.40
2019-04-07T01:49:03.276Z,7.40
2019-04-07T01:51:50.436Z,7.30
2019-04-07T01:54:39.530Z,7.30
2019-04-07T01:57:25.896Z,7.30
2019-04-07T02:00:19.995Z,7.30
2019-04-07T02:03:14.386Z,7.20
2019-04-07T02:06:03.650Z,7.20
2019-04-07T02:08:42.943Z,7.20
2019-04-07T02:11:21.184Z,7.00
2019-04-07T02:14:27.431Z,6.80
2019-04-07T02:17:11.967Z,6.90
2019-04-07T02:19:57.177Z,6.90
2019-04-07T02:22:44.431Z,6.90
2019-04-07T02:25:36.131Z,6.80
2019-04-07T02:28:18.781Z,6.90
2019-04-07T02:31:19.192Z,6.80
2019-04-07T02:33:59.964Z,6.80
2019-04-07T02:36:46.530Z,6.80
2019-04-07T02:39:34.896Z,6.80
2019-04-07T02:42:35.162Z,6.80
2019-04-07T02:45:19.726Z,6.80
2019-04-07T02:48:03.415Z,6.70
2019-04-07T02:50:54.951Z,6.70
2019-04-07T02:53:46.986Z,6.70
2019-04-07T02:56:29.322Z,6.70
2019-04-07T02:59:14.399Z,6.70
2019-04-07T03:01:59.286Z,6.70
2019-04-07T03:04:53.625Z,6.60
2019-04-07T03:07:36.226Z,6.50
2019-04-07T03:10:23.591Z,6.50
2019-04-07T03:13:12.723Z,6.50
2019-04-07T03:16:04.494Z,6.50
2019-04-07T03:19:04.793Z,6.40
2019-04-07T03:21:59.552Z,6.50
2019-04-07T03:24:35.115Z,6.50
2019-04-07T03:27:30.250Z,6.40
2019-04-07T03:30:06.228Z,6.20
2019-04-07T03:33:02.808Z,6.00
2019-04-07T03:35:36.031Z,6.00
2019-04-07T03:38:37.237Z,6.10
2019-04-07T03:41:29.135Z,6.20
2019-04-07T03:44:18.889Z,6.20
2019-04-07T03:47:01.333Z,6.30
2019-04-07T03:49:59.628Z,6.40
2019-04-07T03:52:47.030Z,6.30
2019-04-07T03:55:24.575Z,6.30
2019-04-07T03:58:12.277Z,6.20
2019-04-07T04:01:33.660Z,6.00
2019-04-07T04:04:26.077Z,6.00
2019-04-07T04:06:59.962Z,6.00
2019-04-07T04:09:47.562Z,6.10
2019-04-07T04:12:31.705Z,6.10
2019-04-07T04:15:08.863Z,6.10
2019-04-07T04:17:39.069Z,6.00
2019-04-07T04:20:08.716Z,6.00
2019-04-07T04:22:39.565Z,6.00
2019-04-07T04:25:09.221Z,5.90
2019-04-07T04:27:38.983Z,5.90
2019-04-07T04:30:10.808Z,6.00
2019-04-07T04:32:43.501Z,6.00
2019-04-07T04:35:13.058Z,6.00
2019-04-07T04:37:48.208Z,6.00
2019-04-07T04:40:14.075Z,5.90
2019-04-07T04:42:44.618Z,6.00
2019-04-07T04:45:14.080Z,6.00
2019-04-07T04:47:43.385Z,6.10
2019-04-07T04:50:13.175Z,6.10
2019-04-07T04:52:42.766Z,6.10
2019-04-07T04:55:12.264Z,6.20
2019-04-07T04:57:42.442Z,6.30
2019-04-07T05:00:12.240Z,6.40
2019-04-07T05:02:41.498Z,6.50
2019-04-07T05:05:11.005Z,6.50
2019-04-07T05:07:51.055Z,6.50
2019-04-07T05:10:12.158Z,6.50
2019-04-07T05:12:42.020Z,6.50
2019-04-07T05:15:11.973Z,6.50
2019-04-07T05:17:42.065Z,6.70
2019-04-07T05:20:12.343Z,6.80
2019-04-07T05:22:42.180Z,7.00
2019-04-07T05:25:12.034Z,7.00
2019-04-07T05:27:41.601Z,7.00
2019-04-07T05:30:11.312Z,7.00
2019-04-07T05:32:41.036Z,7.10
2019-04-07T05:35:11.237Z,7.10
2019-04-07T05:37:40.676Z,7.30
2019-04-07T05:40:10.157Z,7.50
2019-04-07T05:42:40.029Z,7.70
2019-04-07T05:45:10.061Z,7.90
2019-04-07T05:47:43.612Z,8.10
2019-04-07T05:50:11.185Z,8.10
2019-04-07T05:52:40.913Z,8.30
2019-04-07T05:55:10.964Z,8.50
2019-04-07T05:57:40.304Z,8.70
2019-04-07T06:00:15.662Z,8.90
2019-04-07T06:02:42.928Z,9.10
2019-04-07T06:05:12.509Z,9.20
2019-04-07T06:07:42.413Z,9.30
2019-04-07T06:10:14.529Z,9.40
2019-04-07T06:12:46.872Z,9.50
2019-04-07T06:15:19.263Z,9.60
2019-04-07T06:17:46.521Z,9.70
2019-04-07T06:20:18.062Z,9.80
2019-04-07T06:22:53.075Z,9.90
2019-04-07T06:25:21.213Z,10.00
2019-04-07T06:27:51.641Z,10.10
2019-04-07T06:30:22.097Z,10.30
2019-04-07T06:32:51.825Z,10.40
2019-04-07T06:35:21.215Z,10.30
2019-04-07T06:37:50.835Z,10.20
2019-04-07T06:40:21.295Z,10.10
2019-04-07T06:42:51.313Z,10.10
2019-04-07T06:45:24.480Z,10.40
2019-04-07T06:47:56.588Z,10.60
2019-04-07T06:50:45.488Z,10.90
2019-04-07T06:53:17.444Z,11.00
2019-04-07T06:56:05.747Z,11.50
2019-04-07T06:58:53.214Z,11.70
2019-04-07T07:01:44.909Z,11.80
2019-04-07T07:04:32.233Z,11.90
2019-04-07T07:07:18.949Z,12.10
2019-04-07T07:10:06.587Z,12.10
2019-04-07T07:12:50.689Z,12.50
2019-04-07T07:15:36.073Z,13.50
2019-04-07T07:18:23.832Z,14.00
2019-04-07T07:21:03.144Z,14.70
2019-04-07T07:23:35.249Z,15.30
2019-04-07T07:26:05.946Z,15.70
2019-04-07T07:28:36.041Z,15.00
2019-04-07T07:31:06.146Z,14.60
2019-04-07T07:33:38.385Z,14.90
2019-04-07T07:36:07.951Z,15.50
2019-04-07T07:38:37.326Z,16.10
2019-04-07T07:41:06.559Z,16.30
2019-04-07T07:43:35.932Z,15.40
2019-04-07T07:46:05.595Z,15.90
2019-04-07T07:48:35.622Z,16.20
2019-04-07T07:51:07.180Z,16.50
2019-04-07T07:53:37.081Z,16.10
2019-04-07T07:56:10.730Z,16.70
2019-04-07T07:58:37.626Z,17.20
2019-04-07T08:01:07.032Z,17.00
2019-04-07T08:03:36.512Z,16.60
2019-04-07T08:06:08.213Z,15.90
2019-04-07T08:08:37.279Z,15.40
2019-04-07T08:11:07.343Z,15.20
2019-04-07T08:13:42.071Z,15.20
2019-04-07T08:16:07.723Z,15.40
2019-04-07T08:18:40.369Z,15.40
2019-04-07T08:21:08.695Z,15.40
2019-04-07T08:23:38.499Z,15.90
2019-04-07T08:26:08.524Z,16.70
2019-04-07T08:28:38.181Z,17.10
2019-04-07T08:31:07.491Z,17.70
2019-04-07T08:33:37.409Z,18.30
2019-04-07T08:36:11.668Z,18.40
2019-04-07T08:38:38.017Z,18.50
2019-04-07T08:41:10.126Z,18.40
2019-04-07T08:43:38.338Z,18.30
2019-04-07T08:46:07.628Z,18.30
2019-04-07T08:48:37.453Z,18.60
2019-04-07T08:51:06.944Z,19.00
2019-04-07T08:53:36.351Z,19.10
2019-04-07T08:56:08.183Z,19.50
2019-04-07T08:58:38.878Z,19.70
2019-04-07T09:01:08.586Z,19.60
2019-04-07T09:03:38.738Z,19.50
2019-04-07T09:06:08.177Z,19.50
2019-04-07T09:08:39.565Z,19.40
2019-04-07T09:11:11.226Z,19.60
2019-04-07T09:13:42.970Z,19.60
2019-04-07T09:16:52.881Z,19.30
2019-04-07T09:19:42.014Z,19.60
2019-04-07T09:22:31.617Z,19.70
2019-04-07T09:25:22.538Z,19.60
2019-04-07T09:27:59.164Z,19.40
2019-04-07T09:31:06.286Z,19.80
2019-04-07T09:34:09.574Z,20.00
2019-04-07T09:36:56.199Z,19.70
2019-04-07T09:39:57.545Z,19.70
2019-04-07T09:42:41.178Z,19.80
2019-04-07T09:45:44.750Z,19.90
2019-04-07T09:48:27.790Z,20.00
2019-04-07T09:51:22.047Z,20.40
2019-04-07T09:54:11.026Z,20.80
2019-04-07T09:56:51.871Z,20.40
2019-04-07T09:59:50.861Z,20.50
2019-04-07T10:02:39.337Z,20.30
2019-04-07T10:05:30.911Z,19.70
2019-04-07T10:08:11.413Z,19.80
2019-04-07T10:10:54.831Z,20.10
2019-04-07T10:13:51.186Z,20.10
2019-04-07T10:16:38.166Z,20.40
2019-04-07T10:19:29.950Z,20.40
2019-04-07T10:22:21.581Z,20.90
2019-04-07T10:25:10.711Z,20.90
2019-04-07T10:27:55.629Z,20.80
2019-04-07T10:30:32.804Z,20.80
2019-04-07T10:33:08.877Z,20.80
2019-04-07T10:36:05.997Z,20.80
2019-04-07T10:38:45.471Z,20.80
2019-04-07T10:41:48.595Z,20.90
2019-04-07T10:44:43.561Z,19.50
2019-04-07T10:47:41.194Z,19.10
2019-04-07T10:50:30.228Z,18.60
2019-04-07T10:53:15.997Z,18.50
2019-04-07T10:55:57.478Z,18.90
2019-04-07T10:58:48.772Z,19.00
2019-04-07T11:01:32.080Z,19.80
2019-04-07T11:04:19.195Z,19.90
2019-04-07T11:06:57.483Z,20.10
2019-04-07T11:09:45.075Z,19.70
2019-04-07T11:12:32.587Z,20.00
2019-04-07T11:15:23.617Z,20.10
2019-04-07T11:18:13.634Z,20.30
2019-04-07T11:21:00.981Z,20.30
2019-04-07T11:23:49.035Z,20.10
2019-04-07T11:26:37.471Z,20.20
2019-04-07T11:29:13.313Z,20.30
2019-04-07T11:32:01.624Z,20.30
2019-04-07T11:34:41.394Z,20.30
2019-04-07T11:37:29.134Z,20.40
2019-04-07T11:40:42.068Z,20.20
2019-04-07T11:43:21.159Z,20.40
2019-04-07T11:46:02.899Z,20.70
2019-04-07T11:49:10.821Z,20.50
2019-04-07T11:51:44.262Z,20.00
2019-04-07T11:54:21.652Z,20.30
2019-04-07T11:57:01.040Z,20.30
2019-04-07T11:59:51.319Z,20.40
2019-04-07T12:02:53.309Z,20.40
2019-04-07T12:05:40.809Z,20.80
2019-04-07T12:08:32.481Z,20.50
2019-04-07T12:11:31.049Z,20.40
2019-04-07T12:14:25.646Z,20.90
2019-04-07T12:17:15.060Z,20.80
2019-04-07T12:20:03.224Z,20.90
2019-04-07T12:22:50.288Z,21.30
2019-04-07T12:25:40.349Z,21.00
2019-04-07T12:28:35.390Z,20.40
2019-04-07T12:31:22.752Z,20.40
2019-04-07T12:34:01.848Z,20.70
2019-04-07T12:36:41.973Z,20.80
2019-04-07T12:39:28.862Z,20.50
2019-04-07T12:42:17.818Z,20.50
2019-04-07T12:45:20.499Z,20.20
2019-04-07T12:48:15.668Z,20.20
2019-04-07T12:51:10.054Z,20.50
2019-04-07T12:53:47.908Z,20.70
2019-04-07T12:56:38.027Z,20.30
2019-04-07T12:59:47.034Z,20.80
2019-04-07T13:02:37.034Z,21.20
2019-04-07T13:05:18.698Z,21.40
2019-04-07T13:08:14.542Z,20.60
2019-04-07T13:10:54.691Z,20.70
2019-04-07T13:13:49.192Z,20.80
2019-04-07T13:16:35.917Z,20.80
2019-04-07T13:19:41.811Z,21.10
2019-04-07T13:22:18.343Z,20.80
2019-04-07T13:25:13.163Z,20.70
2019-04-07T13:28:17.198Z,20.80
2019-04-07T13:31:02.980Z,20.80
2019-04-07T13:33:48.325Z,20.90
2019-04-07T13:36:42.785Z,20.40
2019-04-07T13:39:30.347Z,20.80
2019-04-07T13:42:25.440Z,20.80
2019-04-07T13:45:04.309Z,20.50
2019-04-07T13:48:07.804Z,20.60
2019-04-07T13:50:46.922Z,20.90
2019-04-07T13:53:53.178Z,21.10
2019-04-07T13:56:41.879Z,21.00
2019-04-07T13:59:33.796Z,20.90
2019-04-07T14:02:17.466Z,19.80
2019-04-07T14:04:56.330Z,20.10
2019-04-07T14:08:02.912Z,19.50
2019-04-07T14:11:10.939Z,19.70
2019-04-07T14:13:57.862Z,20.00
2019-04-07T14:16:46.454Z,19.90
2019-04-07T14:19:32.060Z,19.60
2019-04-07T14:22:12.353Z,19.70
2019-04-07T14:25:01.580Z,19.60
2019-04-07T14:27:48.692Z,19.50
2019-04-07T14:30:52.238Z,19.60
2019-04-07T14:33:55.651Z,19.90
2019-04-07T14:36:44.593Z,19.80
2019-04-07T14:39:26.022Z,19.30
2019-04-07T14:42:17.662Z,18.80
2019-04-07T14:44:59.098Z,18.70
2019-04-07T14:47:34.493Z,18.90
2019-04-07T14:50:26.495Z,18.70
2019-04-07T14:53:07.814Z,19.00
2019-04-07T14:56:02.227Z,18.80
2019-04-07T14:58:51.068Z,19.00
2019-04-07T15:01:36.770Z,19.00
2019-04-07T15:04:06.449Z,18.90
2019-04-07T15:06:36.597Z,18.80
2019-04-07T15:09:24.036Z,18.60
2019-04-07T15:12:17.567Z,18.70
2019-04-07T15:14:43.818Z,18.70
2019-04-07T15:17:26.281Z,18.80
2019-04-07T15:19:57.086Z,18.80
2019-04-07T15:22:29.981Z,19.00
2019-04-07T15:24:58.107Z,18.90
2019-04-07T15:27:28.302Z,19.10
2019-04-07T15:29:57.841Z,19.10
2019-04-07T15:32:28.958Z,19.10
2019-04-07T15:34:58.920Z,18.90
2019-04-07T15:37:29.215Z,18.90
2019-04-07T15:40:01.001Z,18.60
2019-04-07T15:42:40.363Z,18.60
2019-04-07T15:45:02.425Z,18.60
2019-04-07T15:47:33.403Z,18.60
2019-04-07T15:50:03.042Z,18.70
2019-04-07T15:52:32.357Z,18.50
2019-04-07T15:55:02.020Z,18.50
2019-04-07T15:57:32.369Z,18.70
2019-04-07T16:00:03.939Z,18.40
2019-04-07T16:02:33.552Z,18.40
2019-04-07T16:05:03.700Z,18.50
2019-04-07T16:07:33.129Z,18.50
2019-04-07T16:10:03.772Z,18.50
2019-04-07T16:12:43.491Z,18.40
2019-04-07T16:15:05.526Z,18.40
2019-04-07T16:17:34.933Z,18.30
2019-04-07T16:20:05.756Z,18.30
2019-04-07T16:22:37.487Z,18.20
2019-04-07T16:25:08.136Z,18.20
2019-04-07T16:27:39.215Z,18.30
2019-04-07T16:30:09.800Z,18.40
2019-04-07T16:32:39.495Z,18.20
2019-04-07T16:35:13.063Z,18.10
2019-04-07T16:37:40.344Z,18.20
2019-04-07T16:40:11.826Z,18.20
2019-04-07T16:42:45.621Z,18.10
2019-04-07T16:45:16.421Z,18.20
2019-04-07T16:47:44.033Z,18.00
2019-04-07T16:50:13.453Z,17.90
2019-04-07T16:52:43.165Z,18.10
2019-04-07T16:55:34.910Z,18.20
2019-04-07T16:58:04.609Z,18.20
2019-04-07T17:00:34.513Z,18.20
2019-04-07T17:03:05.587Z,18.20
2019-04-07T17:05:36.209Z,18.20
2019-04-07T17:08:05.882Z,18.10
2019-04-07T17:10:35.457Z,18.10
2019-04-07T17:13:15.455Z,17.90
2019-04-07T17:15:39.428Z,17.90
2019-04-07T17:18:10.268Z,17.90
2019-04-07T17:20:42.351Z,17.90
2019-04-07T17:23:12.200Z,17.60
2019-04-07T17:25:41.735Z,17.50
2019-04-07T17:28:12.904Z,17.40
2019-04-07T17:30:46.471Z,17.50
2019-04-07T17:33:16.754Z,17.50
2019-04-07T17:35:47.466Z,17.40
2019-04-07T17:38:18.268Z,17.30
2019-04-07T17:40:49.309Z,17.30
2019-04-07T17:43:46.526Z,17.40
2019-04-07T17:46:13.104Z,17.30
2019-04-07T17:48:59.865Z,17.30
2019-04-07T17:51:47.939Z,17.30
2019-04-07T17:54:30.299Z,17.30
2019-04-07T17:57:06.685Z,17.20
2019-04-07T17:59:59.217Z,17.10
2019-04-07T18:02:54.642Z,17.10
2019-04-07T18:05:31.235Z,17.00
2019-04-07T18:08:17.872Z,16.90
2019-04-07T18:11:04.676Z,16.80
2019-04-07T18:13:58.018Z,16.60
2019-04-07T18:17:02.660Z,16.40
2019-04-07T18:19:45.160Z,16.20
2019-04-07T18:22:26.171Z,15.90
2019-04-07T18:25:23.958Z,15.60
2019-04-07T18:28:02.967Z,15.30
2019-04-07T18:30:49.938Z,15.10
2019-04-07T18:33:57.253Z,15.00
2019-04-07T18:36:52.484Z,14.90
2019-04-07T18:39:40.730Z,14.70
2019-04-07T18:42:31.736Z,14.60
2019-04-07T18:45:18.974Z,14.50
2019-04-07T18:48:28.425Z,14.40
2019-04-07T18:51:10.653Z,14.40
2019-04-07T18:54:03.820Z,14.10
2019-04-07T18:56:50.662Z,14.00
2019-04-07T18:59:29.223Z,13.90
2019-04-07T19:02:26.909Z,14.00
2019-04-07T19:05:02.237Z,13.90
2019-04-07T19:07:49.691Z,13.90
2019-04-07T19:10:30.458Z,13.90
2019-04-07T19:13:37.237Z,13.70
2019-04-07T19:16:23.422Z,13.70
2019-04-07T19:19:10.657Z,13.70
2019-04-07T19:22:11.107Z,13.70
2019-04-07T19:24:47.495Z,13.70
2019-04-07T19:27:33.672Z,13.70
2019-04-07T19:30:22.922Z,13.80
2019-04-07T19:33:11.031Z,13.90
2019-04-07T19:36:04.806Z,14.00
2019-04-07T19:39:05.036Z,14.10
2019-04-07T19:42:04.613Z,14.20
2019-04-07T19:44:55.443Z,14.20
2019-04-07T19:47:41.852Z,14.30
2019-04-07T19:50:28.999Z,14.30
2019-04-07T19:53:10.552Z,14.30
2019-04-07T19:55:56.298Z,14.40
2019-04-07T19:58:44.904Z,14.40
2019-04-07T20:01:33.640Z,14.30
2019-04-07T20:04:31.034Z,14.20
2019-04-07T20:07:09.154Z,14.10
2019-04-07T20:09:48.756Z,14.00
2019-04-07T20:12:34.630Z,13.90
2019-04-07T20:15:31.900Z,13.80
2019-04-07T20:18:28.341Z,13.70
2019-04-07T20:21:17.565Z,13.70
2019-04-07T20:24:03.642Z,13.60
2019-04-07T20:26:41.052Z,13.60
2019-04-07T20:29:34.127Z,13.50
2019-04-07T20:32:25.307Z,13.50
2019-04-07T20:35:14.581Z,13.40
2019-04-07T20:38:08.814Z,13.40
2019-04-07T20:40:47.852Z,13.30
2019-04-07T20:43:29.170Z,13.20
2019-04-07T20:46:23.968Z,13.10
2019-04-07T20:49:15.905Z,13.10
2019-04-07T20:52:00.671Z,13.00
2019-04-07T20:55:03.786Z,12.90
2019-04-07T20:57:54.950Z,12.80
2019-04-07T21:00:54.193Z,12.70
2019-04-07T21:03:45.074Z,12.60
2019-04-07T21:06:44.163Z,12.70
2019-04-07T21:09:33.347Z,12.70
2019-04-07T21:12:28.924Z,12.60
2019-04-07T21:15:19.052Z,12.50
2019-04-07T21:17:58.330Z,12.50
2019-04-07T21:20:44.584Z,12.40
2019-04-07T21:23:34.625Z,12.30
2019-04-07T21:26:21.332Z,12.30
2019-04-07T21:29:02.431Z,12.30
2019-04-07T21:31:50.741Z,12.20
2019-04-07T21:34:48.009Z,12.20
2019-04-07T21:37:33.779Z,12.20
2019-04-07T21:40:17.578Z,12.00
2019-04-07T21:43:04.656Z,12.00
2019-04-07T21:46:08.237Z,11.90
2019-04-07T21:48:47.472Z,11.70
2019-04-07T21:51:35.827Z,11.70
2019-04-07T21:54:22.959Z,11.70
2019-04-07T21:57:23.566Z,11.70
2019-04-07T22:00:21.020Z,11.70
2019-04-07T22:03:05.551Z,11.60
2019-04-07T22:05:57.140Z,11.60
2019-04-07T22:08:47.778Z,11.50
2019-04-07T22:11:17.647Z,11.50
2019-04-07T22:13:47.155Z,11.40
2019-04-07T22:16:16.515Z,11.30
2019-04-07T22:18:45.837Z,11.20
2019-04-07T22:21:15.185Z,11.20
2019-04-07T22:23:44.482Z,11.20
2019-04-07T22:26:17.912Z,11.10
2019-04-07T22:28:45.021Z,11.00
2019-04-07T22:31:17.070Z,10.90
2019-04-07T22:33:46.621Z,10.90
2019-04-07T22:36:16.746Z,10.90
2019-04-07T22:38:46.125Z,10.80
2019-04-07T22:41:15.593Z,10.70
2019-04-07T22:43:47.786Z,10.70
2019-04-07T22:46:19.515Z,10.60
2019-04-07T22:48:47.983Z,10.70
2019-04-07T22:51:17.419Z,10.60
2019-04-07T22:53:47.571Z,10.60
2019-04-07T22:56:16.981Z,10.50
2019-04-07T22:58:46.533Z,10.50
2019-04-07T23:01:16.559Z,10.40
2019-04-07T23:03:46.016Z,10.40
2019-04-07T23:06:15.417Z,10.30
2019-04-07T23:08:45.358Z,10.30
2019-04-07T23:11:14.805Z,10.30
2019-04-07T23:13:45.067Z,10.20
2019-04-07T23:16:16.571Z,10.20
2019-04-07T23:18:46.504Z,10.20
2019-04-07T23:21:15.850Z,10.20
2019-04-07T23:23:46.162Z,10.20
2019-04-07T23:26:16.002Z,10.20
2019-04-07T23:28:47.080Z,10.20
2019-04-07T23:31:17.255Z,10.20
2019-04-07T23:33:46.541Z,10.10
2019-04-07T23:36:15.964Z,10.10
2019-04-07T23:38:45.585Z,10.10
2019-04-07T23:41:15.909Z,10.10
2019-04-07T23:43:45.976Z,10.10
2019-04-07T23:46:23.959Z,10.10
2019-04-07T23:48:46.403Z,10.00
2019-04-07T23:51:16.477Z,10.10
2019-04-07T23:54:07.535Z,10.00
2019-04-07T23:56:37.546Z,10.00
2019-04-07T23:59:08.062Z,9.90
